Detall de PIREP

Printer-friendly versionPDF version

[2014/06/19 07:20:00]
Flight IATA:CT3202
Pilot Number:042
Company ICAO:CAT
Aircraft Type:A320/E
PAX:98
Departing Airport: LEPA
Destination Airport: LGAV
Alternate Airport:LGTP
Online: VATSIM
Route:MORSS UM603 SOR UM736 CRN UM601 RUTOM UN604 ARA UB34 NEMES
Flight Level:F350
No Slew and time accel
No pause
Crash detect
Detect pilot in Cockpit between each 30 and 45 minutes
07:20 Zero fuel Weight: 124281 Lbs, Fuel Weight: 42164 Lbs
07:20 VATSIM:LEPA 190700Z VRB01KT 9999 FEW018 SCT070 23/14 Q1018 NOSIG
07:20 VATSIM:LGAV 190650Z VRB02KT CAVOK 27/18 Q1010 NOSIG
07:36 Parking Brakes off
07:52 Take-off
07:52 Take off Weight: 164654 Lbs
07:52 Wind: 269º @ 008 Knots Heading: 235º
07:52 POS N39º 33´ 00´´ E002º 43´ 00´´
07:52 Flaps:2 at 149 Knots
07:52 Gear Up: 147 Knots
07:53 Flaps:0 at 162 Knots
08:07 Wind:270º@025 Knots Heading: 078º Ground Speed: 477 Knots Altitude 32513 ft
08:09 TOC
08:09 Fuel Weight: 36695 Lb
08:22 Wind:270º@025 Knots Heading: 073º Ground Speed: 471 Knots Altitude 34986 ft
08:37 Wind:270º@025 Knots Heading: 083º Ground Speed: 471 Knots Altitude 34986 ft
08:52 Wind:270º@025 Knots Heading: 086º Ground Speed: 470 Knots Altitude 34986 ft
09:07 Wind:270º@025 Knots Heading: 108º Ground Speed: 469 Knots Altitude 34986 ft
09:22 Wind:270º@025 Knots Heading: 129º Ground Speed: 464 Knots Altitude 34986 ft
09:37 Wind:270º@025 Knots Heading: 108º Ground Speed: 468 Knots Altitude 34986 ft
09:52 Wind:270º@025 Knots Heading: 099º Ground Speed: 468 Knots Altitude 34986 ft
10:07 Wind:270º@025 Knots Heading: 115º Ground Speed: 466 Knots Altitude 34986 ft
10:08 TOD
10:08 Fuel Weight: 26779 Lb
10:16 Flaps:1 at 214 Knots
10:22 Wind:270º@022 Knots Heading: 193º Ground Speed: 208 Knots Altitude 12887 ft
10:35 Flaps:3 at 176 Knots
10:35 Gear Down: 173 Knots
10:35 Flaps:4 at 172 Knots
10:37 Wind:269º@008 Knots Heading: 219º Ground Speed: 159 Knots Altitude 1545 ft
10:38 TouchDown:Rate -106 ft/min Speed: 154 Knots
10:38 VATSIM:LGAV 191020Z 07011KT 9999 FEW035 29/16 Q1008 NOSIG
10:38 Land
10:38 Wind:269º@008 Knots
10:38 Heading: 217º
10:38 Flight Duration: 02:46
10:38 Landing Weight: 149421 Lbs
10:38 POS N37º 56´ 16´´ E023º 56´ 04´´
10:43 Parking brakes on
10:43 Block to Block Duration: 03:07
10:43 Final Fuel: 24462 Lbls
10:43 Spent Fuel: 17702 Lbls
10:43 Flight Length: 1173 NM
10:43 TOD Land Length: 130 NM

Exportar CSV

Powered by Drupal - Modified by Danger4k